createdAt,value
2018-05-29T00:04:45.458Z,2.60
2018-05-29T00:09:39.524Z,2.60
2018-05-29T00:14:32.806Z,2.30
2018-05-29T00:19:26.866Z,2.80
2018-05-29T00:24:20.161Z,2.73
2018-05-29T00:29:13.487Z,2.80
2018-05-29T00:34:06.766Z,2.67
2018-05-29T00:39:00.062Z,2.80
2018-05-29T00:43:53.351Z,2.77
2018-05-29T00:48:46.634Z,2.50
2018-05-29T00:53:39.954Z,2.37
2018-05-29T00:58:34.010Z,2.57
2018-05-29T01:03:28.819Z,2.57
2018-05-29T01:08:23.727Z,2.73
2018-05-29T01:13:17.195Z,2.27
2018-05-29T01:18:10.471Z,2.80
2018-05-29T01:23:03.762Z,2.40
2018-05-29T01:27:57.058Z,2.63
2018-05-29T01:32:50.335Z,2.60
2018-05-29T01:37:43.626Z,3.00
2018-05-29T01:42:37.684Z,2.70
2018-05-29T01:47:30.971Z,2.57
2018-05-29T01:52:24.299Z,2.77
2018-05-29T01:57:17.588Z,2.30
2018-05-29T02:02:10.885Z,2.67
2018-05-29T02:07:04.174Z,2.43
2018-05-29T02:11:57.468Z,2.80
2018-05-29T02:16:50.760Z,2.70
2018-05-29T02:21:44.826Z,2.70
2018-05-29T02:26:38.091Z,2.97
2018-05-29T02:31:31.396Z,2.73
2018-05-29T02:36:24.692Z,3.00
2018-05-29T02:41:18.763Z,2.90
2018-05-29T02:46:12.073Z,3.40
2018-05-29T02:51:06.125Z,3.57
2018-05-29T02:55:59.415Z,3.67
2018-05-29T03:00:52.708Z,3.43
2018-05-29T03:05:47.495Z,3.57
2018-05-29T03:10:40.810Z,3.60
2018-05-29T03:15:34.117Z,3.67
2018-05-29T03:20:27.387Z,3.83
2018-05-29T03:25:20.677Z,2.93
2018-05-29T03:30:13.961Z,3.17
2018-05-29T03:35:07.270Z,2.77
2018-05-29T03:40:01.404Z,3.10
2018-05-29T03:44:54.700Z,3.20
2018-05-29T03:49:47.981Z,3.13
2018-05-29T03:54:41.319Z,2.80
2018-05-29T03:59:35.382Z,2.90
2018-05-29T04:04:28.681Z,2.50
2018-05-29T04:09:22.783Z,2.60
2018-05-29T04:14:16.100Z,2.80
2018-05-29T04:19:09.383Z,2.10
2018-05-29T04:24:02.674Z,2.60
2018-05-29T04:28:55.999Z,2.17
2018-05-29T04:33:49.286Z,2.60
2018-05-29T04:38:42.574Z,2.53
2018-05-29T04:43:35.894Z,2.60
2018-05-29T04:48:29.180Z,2.60
2018-05-29T04:53:22.484Z,2.37
2018-05-29T04:58:15.811Z,2.07
2018-05-29T05:03:09.112Z,2.30
2018-05-29T05:08:02.426Z,2.30
2018-05-29T05:12:55.727Z,2.47
2018-05-29T05:17:49.018Z,2.57
2018-05-29T05:22:42.340Z,2.50
2018-05-29T05:27:36.406Z,2.47
2018-05-29T05:32:29.739Z,2.30
2018-05-29T05:37:23.027Z,2.47
2018-05-29T05:42:16.316Z,2.30
2018-05-29T05:47:09.620Z,2.43
2018-05-29T05:52:02.910Z,2.50
2018-05-29T05:56:56.976Z,2.20
2018-05-29T06:01:52.169Z,2.07
2018-05-29T06:06:45.484Z,2.70
2018-05-29T06:11:38.770Z,2.77
2018-05-29T06:16:32.051Z,2.30
2018-05-29T06:21:26.124Z,2.50
2018-05-29T06:26:19.566Z,2.30
2018-05-29T06:31:12.863Z,2.43
2018-05-29T06:36:06.199Z,2.50
2018-05-29T06:41:00.379Z,2.07
2018-05-29T06:45:54.510Z,2.60
2018-05-29T06:50:47.804Z,2.43
2018-05-29T06:55:41.108Z,2.33
2018-05-29T07:00:35.205Z,2.73
2018-05-29T07:05:28.524Z,2.93
2018-05-29T07:10:22.685Z,2.60
2018-05-29T07:15:15.997Z,2.63
2018-05-29T07:20:09.297Z,2.97
2018-05-29T07:25:02.584Z,2.60
2018-05-29T07:29:55.911Z,2.60
2018-05-29T07:34:50.024Z,2.80
2018-05-29T07:39:43.312Z,3.03
2018-05-29T07:44:36.596Z,2.93
2018-05-29T07:49:29.887Z,3.57
2018-05-29T07:54:23.202Z,3.27
2018-05-29T07:59:17.318Z,3.70
2018-05-29T08:04:11.420Z,3.83
2018-05-29T08:09:06.547Z,3.03
2018-05-29T08:13:59.843Z,3.37
2018-05-29T08:18:53.151Z,3.50
2018-05-29T08:23:46.564Z,3.72
2018-05-29T08:28:40.625Z,3.60
2018-05-29T08:33:34.219Z,3.97
2018-05-29T08:38:28.435Z,3.30
2018-05-29T08:43:22.531Z,3.75
2018-05-29T08:48:16.598Z,4.15
2018-05-29T08:53:09.897Z,3.53
2018-05-29T08:58:03.962Z,4.00
2018-05-29T09:02:57.262Z,3.70
2018-05-29T09:07:50.647Z,4.15
2018-05-29T09:12:43.947Z,3.72
2018-05-29T09:17:37.223Z,3.55
2018-05-29T09:22:30.531Z,4.12
2018-05-29T09:27:23.835Z,3.67
2018-05-29T09:32:17.142Z,3.92
2018-05-29T09:37:11.236Z,3.70
2018-05-29T09:42:05.305Z,3.80
2018-05-29T09:46:58.609Z,3.80
2018-05-29T09:51:52.701Z,3.65
2018-05-29T09:56:46.757Z,3.30
2018-05-29T10:01:40.069Z,3.97
2018-05-29T10:06:34.146Z,3.97
2018-05-29T10:11:27.438Z,3.60
2018-05-29T10:16:20.738Z,4.05
2018-05-29T10:21:14.055Z,3.90
2018-05-29T10:26:07.380Z,4.15
2018-05-29T10:31:00.756Z,3.67
2018-05-29T10:35:54.020Z,4.00
2018-05-29T10:40:48.926Z,3.92
2018-05-29T10:45:42.281Z,4.53
2018-05-29T10:50:35.589Z,3.55
2018-05-29T10:55:28.906Z,3.67
2018-05-29T11:00:22.183Z,4.05
2018-05-29T11:05:16.255Z,3.80
2018-05-29T11:10:10.323Z,3.28
2018-05-29T11:15:03.591Z,3.28
2018-05-29T11:19:56.912Z,3.20
2018-05-29T11:24:50.337Z,3.22
2018-05-29T11:29:43.651Z,3.90
2018-05-29T11:34:38.455Z,3.47
2018-05-29T11:39:31.757Z,3.55
2018-05-29T11:44:26.732Z,3.17
2018-05-29T11:49:20.060Z,2.90
2018-05-29T11:54:13.479Z,2.75
2018-05-29T11:59:06.802Z,4.87
2018-05-29T12:04:00.887Z,3.30
2018-05-29T12:08:54.213Z,3.00
2018-05-29T12:13:47.513Z,3.17
2018-05-29T12:18:40.792Z,3.50
2018-05-29T12:23:34.083Z,3.22
2018-05-29T12:28:27.374Z,2.80
2018-05-29T12:33:21.445Z,2.42
2018-05-29T12:38:17.241Z,2.58
2018-05-29T12:43:10.683Z,2.20
2018-05-29T12:48:04.928Z,2.30
2018-05-29T12:52:58.229Z,2.17
2018-05-29T12:57:51.558Z,2.50
2018-05-29T13:02:45.658Z,2.22
2018-05-29T13:07:38.976Z,2.80
2018-05-29T13:12:32.277Z,2.22
2018-05-29T13:17:25.650Z,2.72
2018-05-29T13:22:18.956Z,2.50
2018-05-29T13:27:12.357Z,2.50
2018-05-29T13:32:05.668Z,2.55
2018-05-29T13:36:58.987Z,2.58
2018-05-29T13:41:53.068Z,2.20
2018-05-29T13:46:47.169Z,2.15
2018-05-29T13:51:41.275Z,2.10
2018-05-29T13:56:35.369Z,2.33
2018-05-29T14:01:29.402Z,2.40
2018-05-29T14:06:23.267Z,2.15
2018-05-29T14:11:16.604Z,2.72
2018-05-29T14:16:10.084Z,2.10
2018-05-29T14:21:03.416Z,2.33
2018-05-29T14:25:56.728Z,2.17
2018-05-29T14:30:50.026Z,2.17
2018-05-29T14:35:44.169Z,2.40
2018-05-29T14:40:37.460Z,2.22
2018-05-29T14:45:30.779Z,2.40
2018-05-29T14:50:24.866Z,2.25
2018-05-29T14:55:18.192Z,1.80
2018-05-29T15:00:11.500Z,1.52
2018-05-29T15:05:04.905Z,1.75
2018-05-29T15:09:58.984Z,1.83
2018-05-29T15:14:52.288Z,1.60
2018-05-29T15:19:45.626Z,1.90
2018-05-29T15:24:39.036Z,1.60
2018-05-29T15:29:32.304Z,1.73
2018-05-29T15:34:25.616Z,1.48
2018-05-29T15:39:19.687Z,1.50
2018-05-29T15:44:12.990Z,1.40
2018-05-29T15:49:06.304Z,1.50
2018-05-29T15:53:59.590Z,1.70
2018-05-29T15:58:52.884Z,1.50
2018-05-29T16:03:46.792Z,1.30
2018-05-29T16:08:40.871Z,1.62
2018-05-29T16:13:34.171Z,1.50
2018-05-29T16:18:28.246Z,1.42
2018-05-29T16:23:21.559Z,1.50
2018-05-29T16:28:14.910Z,1.60
2018-05-29T16:33:08.190Z,1.58
2018-05-29T16:38:02.250Z,1.40
2018-05-29T16:42:55.575Z,1.23
2018-05-29T16:47:49.747Z,1.50
2018-05-29T16:52:43.080Z,1.20
2018-05-29T16:57:36.974Z,1.50
2018-05-29T17:02:30.266Z,1.12
2018-05-29T17:07:24.285Z,1.02
2018-05-29T17:12:17.583Z,1.02
2018-05-29T17:17:10.899Z,1.00
2018-05-29T17:22:04.192Z,1.12
2018-05-29T17:26:58.284Z,1.30
2018-05-29T17:31:51.599Z,1.12
2018-05-29T17:36:44.895Z,1.05
2018-05-29T17:41:38.209Z,1.10
2018-05-29T17:46:32.251Z,1.27
2018-05-29T17:51:25.761Z,1.60
2018-05-29T17:56:19.407Z,2.20
2018-05-29T18:01:13.742Z,1.70
2018-05-29T18:06:07.243Z,1.60
2018-05-29T18:11:00.565Z,1.40
2018-05-29T18:15:54.068Z,1.50
2018-05-29T18:20:47.445Z,1.50
2018-05-29T18:25:40.851Z,1.87
2018-05-29T18:30:34.211Z,1.77
2018-05-29T18:35:27.565Z,2.15
2018-05-29T18:40:21.637Z,2.53
2018-05-29T18:45:14.969Z,2.03
2018-05-29T18:50:08.314Z,2.30
2018-05-29T18:55:01.593Z,2.33
2018-05-29T18:59:54.938Z,2.30
2018-05-29T19:04:48.235Z,2.20
2018-05-29T19:09:42.492Z,2.90
2018-05-29T19:14:35.783Z,3.10
2018-05-29T19:19:29.075Z,2.60
2018-05-29T19:24:22.384Z,2.80
2018-05-29T19:29:16.440Z,3.00
2018-05-29T19:34:09.742Z,2.90
2018-05-29T19:39:03.046Z,2.80
2018-05-29T19:43:56.355Z,3.10
2018-05-29T19:48:49.677Z,3.10
2018-05-29T19:53:42.988Z,3.03
2018-05-29T19:58:36.280Z,3.10
2018-05-29T20:03:30.493Z,3.00
2018-05-29T20:08:23.813Z,2.90
2018-05-29T20:13:17.137Z,2.90
2018-05-29T20:18:10.422Z,2.90
2018-05-29T20:23:03.712Z,2.90
2018-05-29T20:27:57.020Z,3.63
2018-05-29T20:32:50.361Z,3.20
2018-05-29T20:37:43.651Z,3.40
2018-05-29T20:42:40.184Z,3.30
2018-05-29T20:47:34.410Z,3.37
2018-05-29T20:52:27.714Z,3.97
2018-05-29T20:57:30.395Z,3.20
2018-05-29T21:02:24.627Z,3.60
2018-05-29T21:12:25.834Z,3.87
2018-05-29T21:17:19.120Z,3.73
2018-05-29T21:22:12.489Z,3.97
2018-05-29T21:27:05.784Z,4.43
2018-05-29T21:31:59.128Z,3.93
2018-05-29T21:36:53.211Z,4.63
2018-05-29T21:41:47.275Z,5.13
2018-05-29T21:46:40.592Z,4.23
2018-05-29T21:51:34.655Z,4.40
2018-05-29T21:56:27.967Z,4.10
2018-05-29T22:01:22.655Z,4.10
2018-05-29T22:06:15.963Z,3.80
2018-05-29T22:11:09.261Z,3.80
2018-05-29T22:16:02.663Z,3.23
2018-05-29T22:20:56.028Z,3.70
2018-05-29T22:25:49.490Z,3.43
2018-05-29T22:30:42.823Z,4.00
2018-05-29T22:35:36.121Z,4.00
2018-05-29T22:40:30.232Z,4.00
2018-05-29T22:45:23.496Z,3.83
2018-05-29T22:50:16.849Z,3.77
2018-05-29T22:55:10.147Z,4.40
2018-05-29T23:00:04.259Z,3.87
2018-05-29T23:04:58.311Z,3.70
2018-05-29T23:09:51.620Z,4.23
2018-05-29T23:14:45.692Z,3.70
2018-05-29T23:19:39.005Z,4.13
2018-05-29T23:24:32.301Z,3.90
2018-05-29T23:29:25.608Z,3.80
2018-05-29T23:34:18.960Z,4.13
2018-05-29T23:39:12.503Z,3.70
2018-05-29T23:44:06.568Z,4.10
2018-05-29T23:48:59.872Z,4.33
2018-05-29T23:53:53.997Z,4.00
2018-05-29T23:58:47.309Z,4.50
